createdAt,value
2022-09-17T00:00:02.143Z,80.61
2022-09-17T00:03:00.691Z,80.59
2022-09-17T00:05:32.631Z,80.58
2022-09-17T00:08:05.592Z,80.62
2022-09-17T00:10:40.933Z,80.71
2022-09-17T00:13:13.320Z,80.74
2022-09-17T00:15:46.874Z,80.71
2022-09-17T00:18:18.808Z,80.66
2022-09-17T00:20:50.630Z,80.84
2022-09-17T00:23:22.643Z,80.92
2022-09-17T00:25:54.414Z,81.27
2022-09-17T00:28:26.315Z,81.06
2022-09-17T00:30:58.122Z,81.10
2022-09-17T00:33:30.221Z,81.23
2022-09-17T00:36:03.869Z,81.35
2022-09-17T00:38:36.487Z,81.60
2022-09-17T00:41:09.154Z,81.59
2022-09-17T00:43:44.401Z,81.51
2022-09-17T00:46:27.836Z,81.87
2022-09-17T00:49:03.149Z,82.13
2022-09-17T00:51:38.750Z,82.02
2022-09-17T00:54:12.939Z,82.06
2022-09-17T00:56:44.924Z,81.95
2022-09-17T00:59:17.688Z,81.95
2022-09-17T01:01:50.099Z,82.25
2022-09-17T01:04:24.365Z,82.19
2022-09-17T01:07:07.663Z,82.25
2022-09-17T01:09:51.731Z,82.01
2022-09-17T01:12:54.326Z,82.05
2022-09-17T01:15:31.975Z,82.31
2022-09-17T01:18:29.244Z,82.10
2022-09-17T01:21:27.983Z,82.15
2022-09-17T01:24:23.160Z,82.10
2022-09-17T01:27:21.007Z,82.07
2022-09-17T01:30:23.304Z,82.11
2022-09-17T01:33:06.489Z,82.16
2022-09-17T01:35:49.812Z,82.30
2022-09-17T01:38:28.460Z,82.46
2022-09-17T01:41:08.229Z,82.28
2022-09-17T01:43:49.740Z,82.22
2022-09-17T01:46:25.221Z,82.38
2022-09-17T01:49:03.345Z,82.30
2022-09-17T01:51:41.046Z,82.15
2022-09-17T01:54:20.359Z,82.24
2022-09-17T01:56:58.064Z,82.16
2022-09-17T01:59:35.446Z,82.30
2022-09-17T02:02:14.499Z,82.34
2022-09-17T02:04:56.504Z,82.21
2022-09-17T02:07:30.175Z,82.37
2022-09-17T02:10:07.044Z,82.08
2022-09-17T02:12:45.047Z,82.28
2022-09-17T02:15:22.635Z,82.18
2022-09-17T02:17:58.589Z,82.50
2022-09-17T02:20:36.846Z,82.40
2022-09-17T02:23:14.300Z,82.47
2022-09-17T02:25:51.668Z,82.66
2022-09-17T02:28:29.393Z,82.72
2022-09-17T02:31:01.324Z,82.70
2022-09-17T02:33:35.238Z,82.66
2022-09-17T02:36:07.499Z,82.70
2022-09-17T02:38:42.559Z,82.61
2022-09-17T02:41:19.378Z,82.71
2022-09-17T02:44:01.246Z,83.10
2022-09-17T02:46:48.540Z,83.05
2022-09-17T02:49:39.929Z,83.15
2022-09-17T02:52:19.315Z,83.39
2022-09-17T02:54:58.998Z,83.26
2022-09-17T02:57:39.306Z,83.42
2022-09-17T03:00:16.036Z,83.80
2022-09-17T03:02:51.898Z,83.83
2022-09-17T03:05:25.861Z,84.05
2022-09-17T03:08:00.581Z,84.09
2022-09-17T03:10:33.830Z,83.93
2022-09-17T03:13:05.746Z,84.18
2022-09-17T03:15:37.534Z,84.24
2022-09-17T03:18:09.393Z,84.15
2022-09-17T03:20:41.196Z,84.08
2022-09-17T03:23:13.040Z,84.09
2022-09-17T03:25:44.799Z,84.18
2022-09-17T03:28:16.696Z,84.23
2022-09-17T03:30:48.579Z,84.14
2022-09-17T03:33:20.939Z,84.10
2022-09-17T03:35:52.824Z,84.20
2022-09-17T03:38:25.113Z,84.03
2022-09-17T03:41:05.074Z,84.09
2022-09-17T03:43:37.532Z,84.15
2022-09-17T03:46:09.523Z,84.29
2022-09-17T03:48:41.882Z,84.13
2022-09-17T03:51:13.834Z,83.94
2022-09-17T03:53:45.873Z,84.08
2022-09-17T03:56:18.020Z,84.00
2022-09-17T03:58:53.361Z,84.08
2022-09-17T04:01:25.365Z,84.07
2022-09-17T04:03:57.667Z,84.02
2022-09-17T04:06:30.475Z,84.02
2022-09-17T04:09:04.448Z,84.06
2022-09-17T04:11:36.699Z,84.08
2022-09-17T04:14:08.630Z,84.17
2022-09-17T04:16:40.413Z,84.31
2022-09-17T04:19:14.512Z,84.18
2022-09-17T04:21:48.503Z,84.04
2022-09-17T04:24:21.120Z,84.21
2022-09-17T04:27:17.665Z,84.11
2022-09-17T04:30:03.409Z,84.14
2022-09-17T04:32:35.447Z,84.22
2022-09-17T04:35:08.488Z,84.10
2022-09-17T04:37:40.368Z,84.18
2022-09-17T04:40:13.363Z,84.07
2022-09-17T04:42:45.292Z,84.21
2022-09-17T04:45:17.548Z,84.14
2022-09-17T04:47:51.070Z,84.07
2022-09-17T04:50:23.579Z,84.11
2022-09-17T04:52:55.470Z,84.13
2022-09-17T04:55:27.830Z,84.11
2022-09-17T04:58:00.362Z,84.15
2022-09-17T05:00:32.748Z,84.10
2022-09-17T05:03:04.877Z,83.96
2022-09-17T05:05:36.919Z,84.02
2022-09-17T05:08:09.518Z,84.13
2022-09-17T05:10:41.337Z,84.10
2022-09-17T05:13:13.310Z,84.06
2022-09-17T05:15:45.790Z,84.18
2022-09-17T05:18:17.891Z,84.16
2022-09-17T05:20:49.669Z,84.02
2022-09-17T05:23:21.405Z,84.31
2022-09-17T05:25:53.904Z,84.33
2022-09-17T05:28:25.829Z,84.07
2022-09-17T05:30:59.724Z,84.14
2022-09-17T05:33:32.486Z,84.17
2022-09-17T05:36:04.998Z,84.20
2022-09-17T05:38:37.013Z,84.18
2022-09-17T05:41:09.612Z,84.03
2022-09-17T05:43:41.569Z,84.07
2022-09-17T05:46:13.738Z,84.03
2022-09-17T05:48:45.582Z,84.02
2022-09-17T05:51:18.896Z,84.00
2022-09-17T05:53:50.889Z,84.00
2022-09-17T05:56:24.173Z,83.96
2022-09-17T05:58:59.295Z,84.04
2022-09-17T06:01:31.392Z,84.04
2022-09-17T06:04:04.792Z,83.97
2022-09-17T06:06:37.926Z,83.93
2022-09-17T06:09:10.620Z,83.97
2022-09-17T06:11:42.427Z,83.91
2022-09-17T06:14:14.403Z,83.97
2022-09-17T06:16:46.258Z,83.92
2022-09-17T06:19:18.390Z,83.83
2022-09-17T06:21:51.755Z,83.90
2022-09-17T06:24:32.526Z,83.72
2022-09-17T06:27:05.116Z,83.47
2022-09-17T06:29:36.935Z,83.51
2022-09-17T06:32:13.107Z,83.54
2022-09-17T06:34:45.094Z,83.50
2022-09-17T06:37:17.213Z,83.53
2022-09-17T06:39:51.303Z,83.41
2022-09-17T06:42:25.685Z,83.44
2022-09-17T06:45:00.366Z,83.17
2022-09-17T06:47:34.080Z,82.92
2022-09-17T06:50:06.925Z,82.85
2022-09-17T06:52:38.876Z,82.57
2022-09-17T06:55:11.883Z,82.60
2022-09-17T06:57:44.028Z,82.66
2022-09-17T07:00:16.965Z,82.51
2022-09-17T07:02:57.779Z,82.21
2022-09-17T07:05:33.055Z,82.19
2022-09-17T07:08:07.312Z,82.21
2022-09-17T07:10:39.571Z,81.93
2022-09-17T07:13:11.841Z,81.70
2022-09-17T07:15:43.758Z,81.65
2022-09-17T07:18:16.144Z,81.34
2022-09-17T07:20:55.831Z,81.18
2022-09-17T07:23:28.824Z,81.20
2022-09-17T07:26:02.767Z,81.19
2022-09-17T07:28:34.747Z,81.13
2022-09-17T07:31:10.258Z,81.17
2022-09-17T07:33:45.327Z,80.81
2022-09-17T07:36:18.813Z,80.49
2022-09-17T07:38:51.644Z,79.71
2022-09-17T07:41:23.505Z,79.69
2022-09-17T07:43:56.318Z,79.78
2022-09-17T07:46:28.209Z,79.59
2022-09-17T07:49:00.573Z,79.45
2022-09-17T07:51:32.673Z,79.62
2022-09-17T07:54:06.220Z,79.50
2022-09-17T07:56:38.521Z,79.59
2022-09-17T07:59:11.881Z,79.88
2022-09-17T08:01:43.727Z,79.93
2022-09-17T08:04:15.944Z,80.11
2022-09-17T08:06:49.694Z,80.24
2022-09-17T08:09:22.754Z,80.47
2022-09-17T08:11:56.472Z,80.66
2022-09-17T08:14:30.153Z,80.67
2022-09-17T08:17:02.213Z,80.60
2022-09-17T08:19:34.902Z,80.63
2022-09-17T08:22:06.918Z,80.86
2022-09-17T08:24:38.962Z,81.31
2022-09-17T08:27:10.934Z,81.34
2022-09-17T08:29:42.983Z,81.41
2022-09-17T08:32:14.859Z,81.60
2022-09-17T08:34:46.908Z,81.45
2022-09-17T08:37:18.717Z,81.22
2022-09-17T08:39:50.536Z,81.05
2022-09-17T08:42:28.554Z,80.94
2022-09-17T08:45:03.896Z,81.13
2022-09-17T08:47:38.622Z,81.14
2022-09-17T08:50:18.044Z,81.04
2022-09-17T08:53:24.841Z,81.25
2022-09-17T08:56:03.624Z,81.45
2022-09-17T08:58:56.767Z,81.34
2022-09-17T09:01:36.360Z,81.16
2022-09-17T09:04:27.142Z,81.16
2022-09-17T09:07:08.467Z,81.09
2022-09-17T09:09:46.855Z,81.22
2022-09-17T09:12:24.426Z,81.04
2022-09-17T09:15:01.251Z,81.14
2022-09-17T09:17:40.263Z,81.01
2022-09-17T09:20:23.211Z,80.92
2022-09-17T09:22:56.168Z,81.23
2022-09-17T09:25:31.993Z,81.11
2022-09-17T09:28:16.775Z,80.57
2022-09-17T09:31:03.640Z,80.85
2022-09-17T09:33:44.382Z,80.67
2022-09-17T09:36:22.165Z,80.51
2022-09-17T09:39:01.871Z,80.65
2022-09-17T09:41:41.476Z,80.59
2022-09-17T09:44:15.526Z,80.36
2022-09-17T09:47:04.507Z,80.26
2022-09-17T09:49:50.314Z,80.50
2022-09-17T09:52:36.230Z,80.14
2022-09-17T09:55:32.841Z,80.23
2022-09-17T09:58:19.037Z,80.21
2022-09-17T10:00:52.226Z,79.77
2022-09-17T10:03:27.775Z,79.90
2022-09-17T10:06:02.125Z,79.74
2022-09-17T10:08:36.814Z,79.19
2022-09-17T10:11:21.720Z,79.15
2022-09-17T10:13:54.171Z,79.43
2022-09-17T10:16:29.399Z,79.45
2022-09-17T10:19:15.425Z,79.33
2022-09-17T10:21:47.308Z,79.32
2022-09-17T10:24:26.955Z,79.38
2022-09-17T10:27:07.210Z,79.41
2022-09-17T10:29:43.812Z,79.48
2022-09-17T10:32:19.532Z,79.61
2022-09-17T10:35:05.151Z,79.30
2022-09-17T10:40:32.391Z,78.92
2022-09-17T10:43:24.959Z,79.04
2022-09-17T10:46:01.411Z,79.16
2022-09-17T10:48:42.094Z,79.33
2022-09-17T10:51:24.256Z,78.87
2022-09-17T10:54:16.985Z,78.98
2022-09-17T10:56:54.889Z,78.51
2022-09-17T10:59:59.006Z,78.68
2022-09-17T11:03:01.443Z,79.07
2022-09-17T11:05:56.788Z,78.77
2022-09-17T11:08:35.446Z,78.37
2022-09-17T11:11:11.845Z,78.53
2022-09-17T11:13:58.710Z,78.67
2022-09-17T11:16:41.754Z,78.80
2022-09-17T11:19:28.354Z,78.44
2022-09-17T11:22:07.106Z,77.64
2022-09-17T11:25:04.611Z,78.29
2022-09-17T11:27:49.435Z,77.94
2022-09-17T11:30:23.279Z,78.01
2022-09-17T11:33:09.667Z,77.21
2022-09-17T11:35:48.153Z,77.44
2022-09-17T11:38:27.297Z,77.34
2022-09-17T11:41:05.849Z,76.76
2022-09-17T11:43:43.356Z,76.67
2022-09-17T11:46:21.020Z,76.22
2022-09-17T11:49:01.068Z,75.99
2022-09-17T11:51:38.201Z,76.03
2022-09-17T11:54:18.267Z,75.67
2022-09-17T11:56:53.414Z,75.25
2022-09-17T11:59:32.726Z,74.90
2022-09-17T12:02:08.813Z,74.56
2022-09-17T12:04:47.353Z,74.17
2022-09-17T12:07:33.917Z,73.32
2022-09-17T12:10:29.949Z,73.69
2022-09-17T12:13:13.810Z,73.84
2022-09-17T12:15:53.426Z,73.72
2022-09-17T12:18:44.637Z,73.53
2022-09-17T12:21:22.826Z,73.18
2022-09-17T12:24:00.329Z,72.91
2022-09-17T12:26:49.408Z,73.18
2022-09-17T12:29:44.110Z,73.28
2022-09-17T12:32:41.073Z,73.07
2022-09-17T12:35:46.396Z,72.73
2022-09-17T12:38:37.624Z,73.21
2022-09-17T12:41:18.063Z,73.55
2022-09-17T12:44:11.703Z,73.89
2022-09-17T12:47:17.144Z,73.77
2022-09-17T12:50:06.381Z,72.88
2022-09-17T12:52:52.712Z,72.99
2022-09-17T12:55:45.289Z,72.47
2022-09-17T12:58:29.744Z,72.28
2022-09-17T13:01:09.022Z,72.28
2022-09-17T13:03:46.226Z,72.00
2022-09-17T13:07:00.580Z,70.67
2022-09-17T13:09:59.431Z,70.56
2022-09-17T13:12:38.950Z,70.92
2022-09-17T13:15:39.356Z,71.16
2022-09-17T13:18:26.682Z,70.89
2022-09-17T13:21:05.678Z,69.81
2022-09-17T13:23:43.513Z,69.93
2022-09-17T13:26:20.608Z,69.67
2022-09-17T13:28:54.263Z,69.36
2022-09-17T13:31:50.122Z,68.79
2022-09-17T13:34:38.722Z,68.87
2022-09-17T13:37:22.659Z,68.19
2022-09-17T13:39:54.809Z,68.39
2022-09-17T13:42:29.388Z,68.86
2022-09-17T13:45:13.203Z,69.09
2022-09-17T13:47:53.640Z,69.27
2022-09-17T13:50:33.320Z,69.16
2022-09-17T13:53:18.495Z,69.47
2022-09-17T13:55:54.765Z,69.71
2022-09-17T13:58:30.283Z,69.49
2022-09-17T14:01:04.699Z,69.14
2022-09-17T14:03:56.878Z,71.13
2022-09-17T14:06:53.643Z,73.79
2022-09-17T14:09:55.286Z,75.10
2022-09-17T14:13:22.047Z,76.51
2022-09-17T14:16:04.041Z,77.54
2022-09-17T14:18:43.487Z,77.80
2022-09-17T14:21:28.454Z,77.23
2022-09-17T14:24:02.510Z,77.53
2022-09-17T14:26:50.786Z,77.42
2022-09-17T14:29:43.825Z,77.67
2022-09-17T14:32:20.942Z,78.07
2022-09-17T14:34:53.053Z,78.47
2022-09-17T14:37:25.548Z,78.76
2022-09-17T14:39:57.698Z,78.87
2022-09-17T14:42:36.949Z,79.22
2022-09-17T14:45:17.105Z,79.61
2022-09-17T14:47:49.013Z,80.03
2022-09-17T14:50:26.322Z,79.95
2022-09-17T14:52:58.170Z,79.98
2022-09-17T14:55:32.394Z,80.05
2022-09-17T14:58:04.935Z,80.04
2022-09-17T15:00:39.029Z,80.35
2022-09-17T15:03:24.161Z,80.66
2022-09-17T15:05:56.450Z,80.74
2022-09-17T15:08:30.346Z,81.17
2022-09-17T15:11:04.993Z,81.28
2022-09-17T15:13:39.456Z,81.37
2022-09-17T15:16:19.697Z,81.64
2022-09-17T15:18:53.661Z,82.04
2022-09-17T15:21:35.450Z,82.02
2022-09-17T15:24:19.966Z,82.30
2022-09-17T15:26:54.757Z,82.43
2022-09-17T15:29:31.246Z,82.62
2022-09-17T15:32:06.570Z,82.77
2022-09-17T15:34:40.017Z,83.01
2022-09-17T15:37:20.803Z,83.07
2022-09-17T15:39:56.749Z,83.31
2022-09-17T15:42:31.246Z,83.42
2022-09-17T15:45:19.745Z,83.89
2022-09-17T15:47:56.702Z,84.13
2022-09-17T15:50:30.381Z,84.30
2022-09-17T15:53:16.328Z,84.09
2022-09-17T15:55:59.458Z,84.12
2022-09-17T15:58:34.528Z,84.41
2022-09-17T16:01:40.812Z,84.25
2022-09-17T16:04:21.491Z,84.27
2022-09-17T16:06:57.758Z,84.37
2022-09-17T16:09:48.875Z,84.32
2022-09-17T16:12:23.507Z,84.37
2022-09-17T16:14:56.927Z,84.66
2022-09-17T16:17:36.637Z,84.73
2022-09-17T16:20:15.846Z,84.73
2022-09-17T16:22:49.067Z,85.16
2022-09-17T16:25:23.953Z,85.29
2022-09-17T16:27:59.604Z,85.41
2022-09-17T16:30:31.589Z,85.39
2022-09-17T16:33:06.876Z,85.53
2022-09-17T16:35:39.218Z,85.76
2022-09-17T16:38:12.989Z,85.66
2022-09-17T16:40:47.649Z,85.50
2022-09-17T16:43:20.458Z,85.41
2022-09-17T16:46:02.580Z,85.26
2022-09-17T16:48:35.421Z,85.24
2022-09-17T16:51:11.286Z,84.99
2022-09-17T16:53:43.776Z,85.05
2022-09-17T16:56:17.491Z,84.72
2022-09-17T16:58:49.592Z,84.67
2022-09-17T17:01:21.501Z,84.49
2022-09-17T17:03:55.877Z,84.47
2022-09-17T17:06:27.986Z,84.54
2022-09-17T17:09:02.042Z,84.50
2022-09-17T17:11:34.006Z,84.28
2022-09-17T17:14:06.420Z,84.39
2022-09-17T17:16:40.799Z,84.32
2022-09-17T17:19:12.910Z,84.53
2022-09-17T17:21:47.183Z,84.46
2022-09-17T17:24:19.392Z,84.31
2022-09-17T17:26:51.958Z,84.37
2022-09-17T17:29:23.938Z,84.32
2022-09-17T17:31:55.862Z,84.27
2022-09-17T17:34:28.019Z,84.34
2022-09-17T17:37:00.636Z,84.22
2022-09-17T17:39:33.264Z,84.23
2022-09-17T17:42:05.654Z,84.37
2022-09-17T17:44:37.727Z,84.50
2022-09-17T17:47:09.922Z,84.40
2022-09-17T17:49:41.837Z,84.56
2022-09-17T17:52:13.737Z,84.71
2022-09-17T17:54:48.671Z,84.76
2022-09-17T17:57:20.695Z,84.79
2022-09-17T17:59:52.615Z,84.99
2022-09-17T18:02:25.061Z,84.95
2022-09-17T18:04:59.765Z,85.11
2022-09-17T18:07:35.409Z,85.53
2022-09-17T18:10:08.895Z,85.40
2022-09-17T18:12:40.866Z,85.21
2022-09-17T18:15:13.740Z,85.24
2022-09-17T18:17:48.236Z,85.13
2022-09-17T18:20:22.967Z,85.31
2022-09-17T18:22:56.545Z,85.37
2022-09-17T18:25:28.842Z,85.44
2022-09-17T18:28:01.086Z,85.52
2022-09-17T18:30:33.316Z,85.61
2022-09-17T18:33:07.824Z,85.59
2022-09-17T18:41:57.482Z,85.79
2022-09-17T18:44:32.365Z,85.83
2022-09-17T18:47:04.357Z,85.76
2022-09-17T18:49:36.469Z,85.73
2022-09-17T18:52:08.502Z,85.91
2022-09-17T18:58:21.952Z,86.13
2022-09-17T19:00:55.326Z,86.14
2022-09-17T19:03:46.722Z,86.16
2022-09-17T19:06:21.099Z,86.13
2022-09-17T19:09:00.829Z,86.04
2022-09-17T19:11:44.267Z,86.25
2022-09-17T19:14:44.691Z,86.28
2022-09-17T19:28:13.674Z,85.48
2022-09-17T19:31:04.802Z,85.49
2022-09-17T19:33:36.678Z,85.62
2022-09-17T19:36:10.191Z,85.65
2022-09-17T19:38:49.089Z,85.91
2022-09-17T19:41:19.633Z,86.05
2022-09-17T19:44:48.488Z,86.04
2022-09-17T19:54:50.085Z,86.63
2022-09-17T19:57:21.265Z,86.87
2022-09-17T19:59:50.512Z,87.04
2022-09-17T20:02:20.982Z,86.95
2022-09-17T20:04:49.640Z,87.20
2022-09-17T20:07:19.419Z,87.48
2022-09-17T20:09:47.928Z,87.52
2022-09-17T20:15:36.813Z,87.75
2022-09-17T20:18:06.106Z,87.43
2022-09-17T20:21:06.944Z,87.65
2022-09-17T20:23:52.330Z,87.68
2022-09-17T20:26:22.963Z,87.67
2022-09-17T20:28:52.823Z,87.86
2022-09-17T20:31:23.074Z,87.99
2022-09-17T20:33:53.658Z,88.05
2022-09-17T20:36:24.755Z,88.06
2022-09-17T20:41:42.913Z,88.02
2022-09-17T20:44:11.523Z,88.03
2022-09-17T20:46:40.832Z,87.95
2022-09-17T20:49:09.619Z,87.84
2022-09-17T20:52:27.677Z,87.83
2022-09-17T21:07:06.577Z,87.15
2022-09-17T21:09:41.151Z,86.68
2022-09-17T21:15:07.526Z,87.00
2022-09-17T21:17:36.024Z,87.02
2022-09-17T21:20:39.830Z,87.07
2022-09-17T21:23:14.508Z,87.28
2022-09-17T21:25:49.442Z,87.27
2022-09-17T21:28:19.864Z,87.41
2022-09-17T21:30:48.938Z,87.49
2022-09-17T21:33:21.554Z,87.63
2022-09-17T21:35:50.720Z,87.77
2022-09-17T21:38:19.733Z,87.73
2022-09-17T21:40:56.394Z,87.88
2022-09-17T21:43:25.683Z,87.87
2022-09-17T21:46:01.873Z,88.00
2022-09-17T21:48:31.492Z,88.00
2022-09-17T21:51:05.572Z,88.02
2022-09-17T21:53:34.125Z,88.19
2022-09-17T21:56:05.132Z,88.30
2022-09-17T21:58:34.410Z,88.50
2022-09-17T22:01:08.110Z,88.78
2022-09-17T22:03:37.414Z,88.79
2022-09-17T22:06:08.456Z,88.80
2022-09-17T22:08:36.885Z,89.07
2022-09-17T22:11:08.983Z,89.02
2022-09-17T22:13:38.022Z,89.05
2022-09-17T22:16:09.714Z,89.28
2022-09-17T22:18:38.487Z,89.18
2022-09-17T22:21:14.721Z,89.36
2022-09-17T22:23:43.210Z,89.52
2022-09-17T22:26:12.214Z,89.71
2022-09-17T22:28:40.673Z,89.74
2022-09-17T22:31:11.103Z,89.87
2022-09-17T22:33:41.509Z,89.97
2022-09-17T22:36:11.944Z,90.13
2022-09-17T22:38:41.509Z,90.24
2022-09-17T22:41:14.534Z,90.39
2022-09-17T22:43:42.935Z,90.35
2022-09-17T22:46:13.384Z,90.38
2022-09-17T22:48:41.912Z,90.43
2022-09-17T22:51:10.884Z,90.47
2022-09-17T22:53:40.587Z,90.53
2022-09-17T22:56:11.855Z,90.43
2022-09-17T22:58:40.657Z,90.45
2022-09-17T23:01:11.837Z,90.43
2022-09-17T23:03:41.781Z,90.43
2022-09-17T23:06:12.645Z,90.38
2022-09-17T23:08:41.628Z,90.39
2022-09-17T23:11:18.402Z,90.41
2022-09-17T23:13:47.618Z,90.46
2022-09-17T23:16:16.849Z,90.51
2022-09-17T23:18:45.484Z,90.40
2022-09-17T23:21:16.191Z,90.61
2022-09-17T23:23:47.507Z,90.55
2022-09-17T23:26:18.354Z,90.65
2022-09-17T23:28:47.106Z,90.70
2022-09-17T23:31:18.029Z,90.64
2022-09-17T23:33:47.147Z,90.70
2022-09-17T23:36:18.672Z,90.93
2022-09-17T23:38:48.739Z,90.97
2022-09-17T23:41:24.810Z,91.01
2022-09-17T23:43:55.769Z,91.01
2022-09-17T23:46:26.086Z,91.06
2022-09-17T23:48:54.925Z,90.89
2022-09-17T23:51:24.983Z,90.78
2022-09-17T23:53:55.043Z,90.78
2022-09-17T23:56:25.001Z,90.74
2022-09-17T23:58:54.499Z,90.70
